createdAt,value
2019-01-13T00:02:59.911Z,7.43
2019-01-13T00:08:06.773Z,7.49
2019-01-13T00:13:13.250Z,7.62
2019-01-13T00:18:19.535Z,7.44
2019-01-13T00:23:26.441Z,7.99
2019-01-13T00:28:33.029Z,7.42
2019-01-13T00:33:39.679Z,7.35
2019-01-13T00:38:46.887Z,7.38
2019-01-13T00:43:53.732Z,7.29
2019-01-13T00:48:59.775Z,7.09
2019-01-13T00:54:06.175Z,6.99
2019-01-13T00:59:15.760Z,7.22
2019-01-13T01:04:21.851Z,7.00
2019-01-13T01:09:28.358Z,6.50
2019-01-13T01:14:34.092Z,7.10
2019-01-13T01:19:41.552Z,6.82
2019-01-13T01:24:49.433Z,6.93
2019-01-13T01:29:57.939Z,6.78
2019-01-13T01:35:06.179Z,6.89
2019-01-13T01:40:15.779Z,6.92
2019-01-13T01:45:23.013Z,6.90
2019-01-13T01:50:30.033Z,7.04
2019-01-13T01:55:36.459Z,6.88
2019-01-13T02:00:42.614Z,7.25
2019-01-13T02:05:48.504Z,6.93
2019-01-13T02:10:56.035Z,7.11
2019-01-13T02:16:06.554Z,6.97
2019-01-13T02:21:12.296Z,7.26
2019-01-13T02:26:19.367Z,7.24
2019-01-13T02:31:27.200Z,7.48
2019-01-13T02:36:33.349Z,7.63
2019-01-13T02:41:40.059Z,7.32
2019-01-13T02:46:46.916Z,7.39
2019-01-13T02:51:57.635Z,6.98
2019-01-13T02:57:04.433Z,7.11
2019-01-13T03:02:10.466Z,6.84
2019-01-13T03:07:18.400Z,7.20
2019-01-13T03:12:24.365Z,7.24
2019-01-13T03:17:30.444Z,7.68
2019-01-13T03:22:37.144Z,7.16
2019-01-13T03:27:43.820Z,7.20
2019-01-13T03:32:50.163Z,7.33
2019-01-13T03:37:56.453Z,7.31
2019-01-13T03:43:02.681Z,6.94
2019-01-13T03:48:09.106Z,6.82
2019-01-13T03:53:15.347Z,7.57
2019-01-13T03:58:22.037Z,7.15
2019-01-13T04:03:29.328Z,7.56
2019-01-13T04:08:35.614Z,7.21
2019-01-13T04:13:41.859Z,7.60
2019-01-13T04:18:48.382Z,7.58
2019-01-13T04:23:54.824Z,7.08
2019-01-13T04:29:01.939Z,7.93
2019-01-13T04:34:08.406Z,7.56
2019-01-13T04:39:14.733Z,7.39
2019-01-13T04:44:20.473Z,7.41
2019-01-13T04:49:26.671Z,7.57
2019-01-13T04:54:33.158Z,6.99
2019-01-13T04:59:39.030Z,7.18
2019-01-13T05:04:48.161Z,7.43
2019-01-13T05:09:56.859Z,7.53
2019-01-13T05:15:03.575Z,7.38
2019-01-13T05:20:13.196Z,7.25
2019-01-13T05:25:20.416Z,7.48
2019-01-13T05:30:28.560Z,7.42
2019-01-13T05:35:34.971Z,7.35
2019-01-13T05:40:41.821Z,7.41
2019-01-13T05:45:48.722Z,7.17
2019-01-13T05:50:55.740Z,7.28
2019-01-13T05:56:02.236Z,7.30
2019-01-13T06:01:08.983Z,7.17
2019-01-13T06:06:15.514Z,7.44
2019-01-13T06:11:22.611Z,7.28
2019-01-13T06:16:28.973Z,7.26
2019-01-13T06:21:35.661Z,7.41
2019-01-13T06:26:43.316Z,7.42
2019-01-13T06:31:56.330Z,7.58
2019-01-13T06:36:59.685Z,7.54
2019-01-13T06:42:06.646Z,7.50
2019-01-13T06:47:13.882Z,7.39
2019-01-13T06:52:19.747Z,7.34
2019-01-13T06:57:25.579Z,7.39
2019-01-13T07:02:31.533Z,7.66
2019-01-13T07:07:37.902Z,7.74
2019-01-13T07:12:44.338Z,7.48
2019-01-13T07:17:50.901Z,7.72
2019-01-13T07:22:56.907Z,7.71
2019-01-13T07:28:03.148Z,7.97
2019-01-13T07:33:09.499Z,7.56
2019-01-13T07:38:15.817Z,7.69
2019-01-13T07:43:30.394Z,7.42
2019-01-13T07:48:36.573Z,7.59
2019-01-13T07:53:42.608Z,7.92
2019-01-13T07:58:50.564Z,8.10
2019-01-13T08:03:57.609Z,7.50
2019-01-13T08:09:05.699Z,7.79
2019-01-13T08:14:12.167Z,7.76
2019-01-13T08:19:18.707Z,7.68
2019-01-13T08:24:25.132Z,8.10
2019-01-13T08:29:32.745Z,7.87
2019-01-13T08:34:39.501Z,7.69
2019-01-13T08:39:45.722Z,8.13
2019-01-13T08:44:51.908Z,7.79
2019-01-13T08:49:58.272Z,7.91
2019-01-13T08:55:06.848Z,8.08
2019-01-13T09:00:28.244Z,7.86
2019-01-13T09:05:35.256Z,7.53
2019-01-13T09:10:43.155Z,8.02
2019-01-13T09:15:50.115Z,8.05
2019-01-13T09:20:57.044Z,7.97
2019-01-13T09:26:02.967Z,7.76
2019-01-13T09:31:09.194Z,7.97
2019-01-13T09:36:16.672Z,7.55
2019-01-13T09:41:23.868Z,7.33
2019-01-13T09:46:30.578Z,7.81
2019-01-13T09:51:40.207Z,7.73
2019-01-13T09:56:49.038Z,7.79
2019-01-13T10:01:56.112Z,7.81
2019-01-13T10:07:02.861Z,7.81
2019-01-13T10:12:10.191Z,7.62
2019-01-13T10:17:18.092Z,7.48
2019-01-13T10:22:25.365Z,7.63
2019-01-13T10:27:31.772Z,7.50
2019-01-13T10:32:38.987Z,7.70
2019-01-13T10:37:45.750Z,7.94
2019-01-13T10:42:52.476Z,7.84
2019-01-13T10:47:59.376Z,8.36
2019-01-13T10:53:06.799Z,7.98
2019-01-13T10:58:13.619Z,8.17
2019-01-13T11:03:20.290Z,8.17
2019-01-13T11:08:26.738Z,8.24
2019-01-13T11:13:34.564Z,8.25
2019-01-13T11:18:41.512Z,8.42
2019-01-13T11:23:53.454Z,8.40
2019-01-13T11:29:00.738Z,7.88
2019-01-13T11:34:07.457Z,7.94
2019-01-13T11:39:14.464Z,8.15
2019-01-13T11:44:21.751Z,8.02
2019-01-13T11:49:29.575Z,8.19
2019-01-13T11:54:36.922Z,7.96
2019-01-13T11:59:48.778Z,7.76
2019-01-13T12:04:55.008Z,7.55
2019-01-13T12:10:02.979Z,7.83
2019-01-13T12:15:12.400Z,7.82
2019-01-13T12:20:24.196Z,7.91
2019-01-13T12:25:30.420Z,7.75
2019-01-13T12:30:37.201Z,7.68
2019-01-13T12:35:43.513Z,8.02
2019-01-13T12:40:49.966Z,7.75
2019-01-13T12:45:56.297Z,8.16
2019-01-13T12:51:02.197Z,7.93
2019-01-13T12:56:10.659Z,7.95
2019-01-13T13:01:16.504Z,8.40
2019-01-13T13:06:23.239Z,7.89
2019-01-13T13:11:30.543Z,8.13
2019-01-13T13:16:37.672Z,8.01
2019-01-13T13:21:43.894Z,7.86
2019-01-13T13:26:50.333Z,8.11
2019-01-13T13:31:56.394Z,8.19
2019-01-13T13:37:03.113Z,7.98
2019-01-13T13:42:09.224Z,8.16
2019-01-13T13:47:15.225Z,8.05
2019-01-13T13:52:21.047Z,8.21
2019-01-13T13:57:26.982Z,8.31
2019-01-13T14:02:33.127Z,8.64
2019-01-13T14:07:39.488Z,8.76
2019-01-13T14:12:45.220Z,8.27
2019-01-13T14:17:50.895Z,8.47
2019-01-13T14:22:56.926Z,8.86
2019-01-13T14:28:02.881Z,9.25
2019-01-13T14:33:09.272Z,8.87
2019-01-13T14:38:15.499Z,9.05
2019-01-13T14:43:21.786Z,9.02
2019-01-13T14:48:27.812Z,9.16
2019-01-13T14:53:33.967Z,9.28
2019-01-13T14:58:40.182Z,9.25
2019-01-13T15:03:45.916Z,9.54
2019-01-13T15:08:51.986Z,9.57
2019-01-13T15:13:57.748Z,9.54
2019-01-13T15:19:03.548Z,9.59
2019-01-13T15:24:09.569Z,9.57
2019-01-13T15:29:16.109Z,9.99
2019-01-13T15:34:21.721Z,9.54
2019-01-13T15:39:28.173Z,9.70
2019-01-13T15:44:34.304Z,9.56
2019-01-13T15:49:40.130Z,9.32
2019-01-13T15:54:45.867Z,9.64
2019-01-13T15:59:52.613Z,9.81
2019-01-13T16:04:58.437Z,9.80
2019-01-13T16:25:17.714Z,7.98
2019-01-13T16:30:29.720Z,9.27
2019-01-13T16:35:36.049Z,9.62
2019-01-13T16:40:41.698Z,9.45
2019-01-13T16:45:49.214Z,9.68
2019-01-13T16:50:54.915Z,9.98
2019-01-13T16:56:00.782Z,9.67
2019-01-13T17:01:07.746Z,9.80
2019-01-13T17:06:14.225Z,9.70
2019-01-13T17:11:20.256Z,9.75
2019-01-13T17:16:28.941Z,9.60
2019-01-13T17:21:34.723Z,9.43
2019-01-13T17:26:40.516Z,9.59
2019-01-13T17:31:46.138Z,9.58
2019-01-13T17:36:51.871Z,9.46
2019-01-13T17:41:57.460Z,9.37
2019-01-13T17:47:03.880Z,9.71
2019-01-13T17:52:09.883Z,9.42
2019-01-13T17:57:15.895Z,9.55
2019-01-13T18:02:22.056Z,9.40
2019-01-13T18:07:28.441Z,9.03
2019-01-13T18:12:34.025Z,9.22
2019-01-13T18:17:39.783Z,9.11
2019-01-13T18:22:45.454Z,9.09
2019-01-13T18:27:51.200Z,9.03
2019-01-13T18:32:58.616Z,8.74
2019-01-13T18:38:04.656Z,8.61
2019-01-13T18:43:10.459Z,8.88
2019-01-13T18:48:16.639Z,9.00
2019-01-13T18:53:22.515Z,8.80
2019-01-13T18:58:28.675Z,8.54
2019-01-13T19:03:37.719Z,8.69
2019-01-13T19:08:43.304Z,8.36
2019-01-13T19:13:52.297Z,8.56
2019-01-13T19:18:58.060Z,8.44
2019-01-13T19:24:06.319Z,8.19
2019-01-13T19:29:12.646Z,8.35
2019-01-13T19:34:18.509Z,8.17
2019-01-13T19:39:24.743Z,8.15
2019-01-13T19:44:30.482Z,8.09
2019-01-13T19:49:36.798Z,8.06
2019-01-13T19:54:42.360Z,7.79
2019-01-13T19:59:47.928Z,7.92
2019-01-13T20:04:53.833Z,8.04
2019-01-13T20:09:59.607Z,7.82
2019-01-13T20:15:08.491Z,7.88
2019-01-13T20:20:17.244Z,7.83
2019-01-13T20:25:24.080Z,7.74
2019-01-13T20:30:34.405Z,7.86
2019-01-13T20:35:40.475Z,8.02
2019-01-13T20:40:46.868Z,8.03
2019-01-13T20:45:52.780Z,8.03
2019-01-13T20:50:58.586Z,7.96
2019-01-13T20:56:07.200Z,7.85
2019-01-13T21:01:12.302Z,7.84
2019-01-13T21:06:18.463Z,7.72
2019-01-13T21:11:24.230Z,7.65
2019-01-13T21:16:29.921Z,7.50
2019-01-13T21:21:36.146Z,7.33
2019-01-13T21:26:42.085Z,7.22
2019-01-13T21:31:49.213Z,7.39
2019-01-13T21:36:55.185Z,7.44
2019-01-13T21:42:01.841Z,7.60
2019-01-13T21:47:07.662Z,7.40
2019-01-13T21:52:13.743Z,7.50
2019-01-13T21:57:19.466Z,7.59
2019-01-13T22:02:25.746Z,7.61
2019-01-13T22:07:32.096Z,7.54
2019-01-13T22:12:39.497Z,7.49
2019-01-13T22:17:45.422Z,8.07
2019-01-13T22:22:52.313Z,7.69
2019-01-13T22:28:02.453Z,7.36
2019-01-13T22:33:09.394Z,7.64
2019-01-13T22:38:15.717Z,7.71
2019-01-13T22:43:22.191Z,7.64
2019-01-13T22:48:28.162Z,7.50
2019-01-13T22:53:33.714Z,7.39
2019-01-13T22:58:39.580Z,7.35
2019-01-13T23:03:45.458Z,7.29
2019-01-13T23:08:51.458Z,7.54
2019-01-13T23:13:57.405Z,7.39
2019-01-13T23:19:03.242Z,7.60
2019-01-13T23:24:08.824Z,7.16
2019-01-13T23:29:14.480Z,7.19
2019-01-13T23:34:21.023Z,7.43
2019-01-13T23:39:26.861Z,7.29
2019-01-13T23:44:32.422Z,6.96
2019-01-13T23:49:38.564Z,7.03
2019-01-13T23:54:44.716Z,7.07
2019-01-13T23:59:51.321Z,7.26
